Govan, Canada
Current Conditions -  °F | °C
As of 6:00 PM on Tuesday 21 Oct 2014 (Local Time) from CYQR Reporting Station
Overcast Overcast  
Wind Chill: 61°   Ceiling: 28000
Heat Index: 61°   Visibility: 15mi
Dew Point: 46°   Wind: 10mph
Humidity: 59%   Direction: 130°SE
Pressure: 29.57"   Gusts: NA
Location:  51.32°N, 105°W
Report Text: CYQR 220000Z 13009KT 15SM SCT140 OVC280 16/08 A2957 RMK AC4CI4 ACC ASOCTD VIRGA SLP023 DENSITY ALT 2900FT
Loading
Personal Weather Stations






























Interactive Weather Map New forecast layout! Learn more

10-Day Weather Forecast

Advertisements
Track Severe Weather on mobile